Time;durP1;ratioP1;P1;durP2;ratioP2;P2;SDS_P1;SDS_P2;PMS_P1;PMS_P2;Temp;Humidity;BMP_temperature;BMP_pressure;BME280_temperature;BME280_humidity;BME280_pressure;Samples;Min_cycle;Max_cycle;Signal;HPM_P1;HPM_P2
2024/01/04 00:00:13;;;;;;;2.27;0.70;;;;;;;7.21;100.00;153211.78;4990226;28;20945;-82
2024/01/04 00:02:40;;;;;;;2.23;0.77;;;;;;;7.17;100.00;153202.75;5008035;28;20545;-82
2024/01/04 00:05:07;;;;;;;2.40;0.50;;;;;;;7.15;100.00;153197.56;4983139;28;20879;-82
2024/01/04 00:07:33;;;;;;;3.03;0.83;;;;;;;7.14;100.00;153193.72;5008831;28;20443;-82
2024/01/04 00:10:00;;;;;;;1.33;0.50;;;;;;;7.13;100.00;153192.41;5003301;28;20510;-82
2024/01/04 00:12:26;;;;;;;1.20;0.60;;;;;;;7.12;100.00;153189.81;5021359;28;20446;-82
2024/01/04 00:14:54;;;;;;;6.67;0.50;;;;;;;7.11;100.00;153187.25;4991249;28;20476;-82
2024/01/04 00:17:21;;;;;;;4.13;0.60;;;;;;;7.10;100.00;153183.34;5026355;28;20447;-82
2024/01/04 00:19:51;;;;;;;1.87;0.90;;;;;;;7.07;100.00;153176.91;5021482;28;20452;-82
2024/01/04 00:22:17;;;;;;;1.80;0.57;;;;;;;7.06;100.00;153174.34;4993797;28;20460;-82
2024/01/04 00:24:44;;;;;;;1.60;0.70;;;;;;;7.03;100.00;153165.28;5008287;28;20522;-82
2024/01/04 00:27:10;;;;;;;2.50;0.70;;;;;;;7.01;100.00;153161.44;4989861;28;20478;-82
2024/01/04 00:29:37;;;;;;;1.63;0.60;;;;;;;7.00;100.00;153158.84;4988918;28;20465;-82
2024/01/04 00:32:06;;;;;;;1.17;0.70;;;;;;;7.00;100.00;153158.84;4988782;28;20445;-82
2024/01/04 00:34:33;;;;;;;2.60;0.87;;;;;;;6.99;100.00;153156.25;4974735;28;20448;-82
2024/01/04 00:36:59;;;;;;;3.67;0.80;;;;;;;6.98;100.00;153153.69;5008975;28;20456;-82
2024/01/04 00:39:26;;;;;;;2.70;0.77;;;;;;;6.97;100.00;153151.09;4998498;28;20475;-82
2024/01/04 00:41:53;;;;;;;2.73;0.53;;;;;;;6.96;100.00;153148.53;4996080;28;20526;-82
2024/01/04 00:44:19;;;;;;;2.67;1.00;;;;;;;6.96;100.00;153148.53;5027996;28;20473;-82
2024/01/04 00:46:46;;;;;;;2.20;0.70;;;;;;;6.96;100.00;153147.25;4987628;28;20467;-81
2024/01/04 00:49:14;;;;;;;1.20;0.53;;;;;;;6.97;100.00;153149.78;5014851;28;20460;-81
2024/01/04 00:51:41;;;;;;;2.17;0.70;;;;;;;6.98;100.00;153153.69;5012221;28;20437;-81
2024/01/04 00:54:07;;;;;;;1.57;0.57;;;;;;;6.96;100.00;153147.25;5013242;28;20880;-81
2024/01/04 00:56:35;;;;;;;2.50;0.73;;;;;;;6.96;100.00;153147.25;4996746;28;20455;-78
2024/01/04 00:59:02;;;;;;;0.90;0.53;;;;;;;6.93;100.00;153140.78;5013338;28;20563;-78
2024/01/04 01:01:29;;;;;;;1.27;0.57;;;;;;;6.92;100.00;153138.19;5015590;28;20437;-78
2024/01/04 01:03:57;;;;;;;3.27;1.00;;;;;;;6.90;100.00;153133.03;5012753;28;20462;-77
2024/01/04 01:06:25;;;;;;;2.60;0.73;;;;;;;6.91;100.00;153135.59;4995099;28;20908;-78
2024/01/04 01:08:51;;;;;;;3.37;0.90;;;;;;;6.89;100.00;153129.13;4995506;28;20468;-77
2024/01/04 01:11:18;;;;;;;1.93;1.03;;;;;;;6.89;100.00;153130.44;4993093;28;20439;-77
2024/01/04 01:13:44;;;;;;;1.33;0.50;;;;;;;6.88;100.00;153126.59;5012550;28;20470;-78
2024/01/04 01:16:11;;;;;;;3.57;1.00;;;;;;;6.87;100.00;153123.97;4993367;28;20542;-78
2024/01/04 01:18:39;;;;;;;1.10;0.70;;;;;;;6.86;100.00;153122.69;5011423;28;20448;-78
2024/01/04 01:21:05;;;;;;;3.90;0.90;;;;;;;6.85;100.00;153120.13;4991145;28;20496;-78
2024/01/04 01:23:33;;;;;;;1.33;0.67;;;;;;;6.86;100.00;153121.44;4989145;28;20456;-78
2024/01/04 01:26:02;;;;;;;2.43;0.53;;;;;;;6.85;100.00;153118.81;5003490;28;20468;-78
2024/01/04 01:28:28;;;;;;;2.20;1.00;;;;;;;6.84;100.00;153116.22;4999801;28;20482;-78
2024/01/04 01:30:55;;;;;;;1.63;0.57;;;;;;;6.84;100.00;153117.53;5025541;28;20455;-78
2024/01/04 01:33:22;;;;;;;1.30;0.60;;;;;;;6.84;100.00;153117.53;4979886;28;20452;-78
2024/01/04 01:35:48;;;;;;;1.20;0.50;;;;;;;6.84;100.00;153117.53;5010555;28;20439;-78
2024/01/04 01:38:15;;;;;;;2.30;0.53;;;;;;;6.83;100.00;153114.94;5002356;28;20998;-78
2024/01/04 01:40:43;;;;;;;1.10;0.50;;;;;;;6.82;100.00;153111.06;5012571;28;20493;-78
2024/01/04 01:43:12;;;;;;;0.80;0.30;;;;;;;6.80;100.00;153107.22;4992513;28;20486;-78
2024/01/04 01:45:38;;;;;;;1.97;0.60;;;;;;;6.79;100.00;153103.31;5009176;28;20479;-78
2024/01/04 01:48:05;;;;;;;1.97;0.67;;;;;;;6.78;100.00;153102.03;5011308;28;20454;-78
2024/01/04 01:50:32;;;;;;;1.23;0.50;;;;;;;6.78;100.00;153102.03;4998994;28;20986;-78
2024/01/04 01:52:59;;;;;;;2.20;0.60;;;;;;;6.82;100.00;153111.06;5025124;28;20535;-78
2024/01/04 01:55:26;;;;;;;1.67;0.80;;;;;;;6.81;100.00;153109.78;5009155;28;20790;-78
2024/01/04 01:57:54;;;;;;;1.47;0.47;;;;;;;6.81;100.00;153109.78;5009329;28;20989;-78
2024/01/04 02:00:21;;;;;;;0.80;0.50;;;;;;;6.82;100.00;153111.06;5004893;28;20546;-77
2024/01/04 02:02:49;;;;;;;1.70;0.90;;;;;;;6.82;100.00;153112.38;4992190;28;20539;-77
2024/01/04 02:05:16;;;;;;;1.20;0.50;;;;;;;6.82;100.00;153111.06;4988947;28;20462;-78
2024/01/04 02:07:44;;;;;;;1.83;0.47;;;;;;;6.78;100.00;153102.03;4997035;28;20456;-78
2024/01/04 02:10:10;;;;;;;1.60;0.53;;;;;;;6.72;100.00;153087.81;4993904;28;20967;-78
2024/01/04 02:12:37;;;;;;;2.03;0.67;;;;;;;6.71;100.00;153083.97;5007211;28;20445;-77
2024/01/04 02:15:07;;;;;;;1.43;0.50;;;;;;;6.70;100.00;153082.66;4992442;28;21065;-78
2024/01/04 02:17:34;;;;;;;0.73;0.30;;;;;;;6.69;100.00;153078.81;4990994;28;20437;-78
2024/01/04 02:20:00;;;;;;;1.93;0.40;;;;;;;6.67;100.00;153073.66;5008248;28;20460;-78
2024/01/04 02:22:27;;;;;;;1.00;0.30;;;;;;;6.64;100.00;153067.22;5006114;28;20475;-78
2024/01/04 02:24:55;;;;;;;0.93;0.30;;;;;;;6.62;100.00;153062.03;4988922;28;20444;-78
2024/01/04 02:27:22;;;;;;;0.80;0.30;;;;;;;6.61;100.00;153059.47;4995034;28;20472;-77
2024/01/04 02:29:48;;;;;;;1.63;0.50;;;;;;;6.59;100.00;153054.28;5011163;28;20445;-78
2024/01/04 02:32:15;;;;;;;0.90;0.50;;;;;;;6.58;100.00;153050.41;5003350;28;20800;-78
2024/01/04 02:34:41;;;;;;;0.80;0.30;;;;;;;6.58;100.00;153051.72;4995000;28;20461;-77
2024/01/04 02:37:08;;;;;;;1.00;0.30;;;;;;;6.57;100.00;153047.81;4990030;28;20438;-77
2024/01/04 02:39:34;;;;;;;1.57;0.30;;;;;;;6.56;100.00;153046.56;4995685;28;20463;-78
2024/01/04 02:42:02;;;;;;;0.60;0.20;;;;;;;6.56;100.00;153045.25;5008598;28;20488;-78
2024/01/04 02:44:28;;;;;;;0.70;0.30;;;;;;;6.54;100.00;153040.13;5013553;28;20456;-78
2024/01/04 02:46:56;;;;;;;0.70;0.30;;;;;;;6.49;100.00;153027.16;5002203;28;20807;-78
2024/01/04 02:49:23;;;;;;;0.80;0.30;;;;;;;6.47;100.00;153022.00;5006807;28;21045;-77
2024/01/04 02:51:50;;;;;;;0.73;0.30;;;;;;;6.43;100.00;153011.72;4998948;28;20452;-78
2024/01/04 02:54:16;;;;;;;1.43;0.27;;;;;;;6.44;100.00;153014.28;5000241;28;20467;-78
2024/01/04 02:56:43;;;;;;;0.80;0.50;;;;;;;6.42;100.00;153009.13;4992573;28;20456;-78
2024/01/04 02:59:11;;;;;;;0.90;0.40;;;;;;;6.38;100.00;153000.06;4994985;28;20873;-78
2024/01/04 03:01:38;;;;;;;1.17;0.50;;;;;;;6.36;100.00;152993.63;4992732;28;20506;-78
2024/01/04 03:04:04;;;;;;;0.70;0.23;;;;;;;6.35;100.00;152991.06;4998639;28;20517;-78
2024/01/04 03:06:31;;;;;;;1.00;0.40;;;;;;;6.33;100.00;152985.91;5020852;28;20544;-78
2024/01/04 03:08:58;;;;;;;0.90;0.30;;;;;;;6.30;100.00;152978.16;4992450;28;20460;-78
2024/01/04 03:11:26;;;;;;;0.70;0.30;;;;;;;6.28;100.00;152974.28;5007894;28;20468;-78
2024/01/04 03:13:53;;;;;;;0.70;0.20;;;;;;;6.29;100.00;152975.56;5002965;28;20476;-78
2024/01/04 03:16:21;;;;;;;0.90;0.30;;;;;;;6.29;100.00;152975.56;5005597;28;20452;-78
2024/01/04 03:18:48;;;;;;;2.00;0.50;;;;;;;6.27;100.00;152971.72;5008009;28;20449;-78
2024/01/04 03:21:15;;;;;;;0.70;0.27;;;;;;;6.25;100.00;152965.28;4996014;28;20469;-78
2024/01/04 03:23:41;;;;;;;0.80;0.30;;;;;;;6.23;100.00;152961.38;4998918;28;20585;-78
2024/01/04 03:26:08;;;;;;;0.60;0.20;;;;;;;6.24;100.00;152962.66;4996345;28;20475;-78
2024/01/04 03:28:34;;;;;;;0.77;0.40;;;;;;;6.23;100.00;152960.06;4997051;28;20518;-77
2024/01/04 03:31:02;;;;;;;1.20;0.30;;;;;;;6.20;100.00;152953.63;4975408;28;20460;-78
2024/01/04 03:33:30;;;;;;;0.80;0.40;;;;;;;6.23;100.00;152960.06;5029745;28;20483;-78
2024/01/04 03:35:57;;;;;;;0.70;0.23;;;;;;;6.21;100.00;152954.94;5012570;28;20463;-77
2024/01/04 03:38:23;;;;;;;0.70;0.30;;;;;;;6.19;100.00;152949.78;5006706;28;20523;-77
2024/01/04 03:40:50;;;;;;;0.70;0.20;;;;;;;6.19;100.00;152949.78;4982068;28;21006;-78
2024/01/04 03:43:17;;;;;;;1.00;0.30;;;;;;;6.19;100.00;152949.78;5007324;28;20472;-78
2024/01/04 03:45:44;;;;;;;1.03;0.30;;;;;;;6.18;100.00;152947.19;5017353;28;20840;-78
2024/01/04 03:48:10;;;;;;;0.77;0.33;;;;;;;6.20;100.00;152953.63;4976756;28;20534;-78
2024/01/04 03:50:38;;;;;;;0.80;0.30;;;;;;;6.19;100.00;152949.78;4994238;28;20467;-78
2024/01/04 03:53:05;;;;;;;0.70;0.20;;;;;;;6.18;100.00;152947.19;4995228;28;20452;-77
2024/01/04 03:55:31;;;;;;;0.80;0.30;;;;;;;6.18;100.00;152947.19;5020869;28;21033;-81
2024/01/04 03:57:58;;;;;;;2.90;0.40;;;;;;;6.18;100.00;152947.19;5009647;28;20436;-81
2024/01/04 04:00:25;;;;;;;1.10;0.33;;;;;;;6.17;100.00;152944.63;4990338;28;20832;-81
2024/01/04 04:02:52;;;;;;;1.33;0.43;;;;;;;6.17;100.00;152944.63;4975017;28;20472;-81
2024/01/04 04:05:18;;;;;;;0.80;0.30;;;;;;;6.14;100.00;152938.19;4999880;28;20467;-81
2024/01/04 04:07:46;;;;;;;0.80;0.37;;;;;;;6.18;100.00;152948.47;5009174;28;20476;-81
2024/01/04 04:10:13;;;;;;;0.70;0.30;;;;;;;6.16;100.00;152943.31;5010525;28;20471;-81
2024/01/04 04:12:39;;;;;;;0.83;0.27;;;;;;;6.19;100.00;152949.78;5005978;28;20457;-81
2024/01/04 04:15:08;;;;;;;1.27;0.40;;;;;;;6.22;100.00;152957.53;5006999;28;20453;-81
2024/01/04 04:17:35;;;;;;;0.70;0.30;;;;;;;6.22;100.00;152957.53;4981151;28;20540;-81
2024/01/04 04:20:03;;;;;;;2.70;0.70;;;;;;;6.22;100.00;152957.53;5007702;28;20974;-81
2024/01/04 04:22:30;;;;;;;0.77;0.40;;;;;;;6.22;100.00;152958.81;5013383;28;20448;-81
2024/01/04 04:24:58;;;;;;;0.80;0.30;;;;;;;6.25;100.00;152965.28;4992640;28;20455;-81
2024/01/04 04:27:24;;;;;;;1.43;0.80;;;;;;;6.27;100.00;152970.41;5008777;28;20471;-81
2024/01/04 04:29:51;;;;;;;0.90;0.47;;;;;;;6.28;100.00;152974.28;5026687;28;20492;-81
2024/01/04 04:32:18;;;;;;;0.70;0.30;;;;;;;6.30;100.00;152978.16;5013191;28;20850;-82
2024/01/04 04:34:45;;;;;;;1.50;0.60;;;;;;;6.29;100.00;152976.88;5025960;28;20447;-81
2024/01/04 04:37:13;;;;;;;2.13;0.70;;;;;;;6.31;100.00;152982.03;5007735;28;20451;-81
2024/01/04 04:39:39;;;;;;;0.90;0.40;;;;;;;6.35;100.00;152992.38;4990051;28;21036;-81
2024/01/04 04:42:07;;;;;;;3.33;1.07;;;;;;;6.36;100.00;152993.63;5007444;28;20488;-81
2024/01/04 04:44:34;;;;;;;1.57;0.60;;;;;;;6.37;100.00;152997.53;4990854;28;20464;-81
2024/01/04 04:47:00;;;;;;;1.07;0.43;;;;;;;6.38;100.00;152998.81;5008141;28;20476;-81
2024/01/04 04:49:28;;;;;;;5.17;0.57;;;;;;;6.40;100.00;153003.97;5013210;28;20447;-81
2024/01/04 04:51:54;;;;;;;1.67;0.83;;;;;;;6.43;100.00;153011.72;5018288;28;20455;-81
2024/01/04 04:54:22;;;;;;;1.33;0.53;;;;;;;6.44;100.00;153014.28;5007612;28;20800;-81
2024/01/04 04:56:48;;;;;;;1.23;0.50;;;;;;;6.44;100.00;153015.56;4994928;28;20464;-81
2024/01/04 04:59:16;;;;;;;1.40;0.40;;;;;;;6.45;100.00;153016.88;5004853;28;20603;-81
2024/01/04 05:01:44;;;;;;;4.13;0.57;;;;;;;6.48;100.00;153024.63;5012563;28;20447;-81
2024/01/04 05:04:10;;;;;;;3.50;0.80;;;;;;;6.48;100.00;153024.63;4993075;28;20472;-81
2024/01/04 05:06:37;;;;;;;1.80;0.40;;;;;;;6.49;100.00;153027.16;5007093;28;20459;-81
2024/01/04 05:09:04;;;;;;;0.80;0.40;;;;;;;6.49;100.00;153027.16;5004598;28;21030;-81
2024/01/04 05:11:30;;;;;;;1.13;0.50;;;;;;;6.50;100.00;153031.06;4989578;28;20974;-81
2024/01/04 05:13:57;;;;;;;2.03;0.70;;;;;;;6.50;100.00;153029.75;5002541;28;20456;-81
2024/01/04 05:16:24;;;;;;;3.70;0.53;;;;;;;6.53;100.00;153037.50;5004448;28;20978;-81
2024/01/04 05:18:51;;;;;;;1.67;0.70;;;;;;;6.49;100.00;153028.47;4985139;28;21005;-81
2024/01/04 05:21:18;;;;;;;0.90;0.37;;;;;;;6.50;100.00;153029.75;4989073;28;20488;-81
2024/01/04 05:23:44;;;;;;;1.10;0.40;;;;;;;6.51;100.00;153032.38;5012634;28;20491;-81
2024/01/04 05:26:19;;;;;;;3.03;0.80;;;;;;;6.48;100.00;153024.63;5011913;28;20455;-81
2024/01/04 05:28:46;;;;;;;1.60;0.60;;;;;;;6.50;100.00;153031.06;4990886;28;20929;-81
2024/01/04 05:31:12;;;;;;;1.87;0.50;;;;;;;6.49;100.00;153027.16;4996813;28;20516;-81
2024/01/04 05:33:40;;;;;;;1.87;0.70;;;;;;;6.48;100.00;153024.63;5004075;28;20460;-81
2024/01/04 05:36:09;;;;;;;0.80;0.50;;;;;;;6.48;100.00;153025.91;5005033;28;20462;-81
2024/01/04 05:38:36;;;;;;;1.80;0.70;;;;;;;6.49;100.00;153027.16;4990318;28;20507;-81
2024/01/04 05:41:29;;;;;;;1.10;0.60;;;;;;;6.49;100.00;153028.47;4986263;28;20848;-81
2024/01/04 05:43:55;;;;;;;1.20;0.50;;;;;;;6.48;100.00;153025.91;5004315;28;21299;-81
2024/01/04 05:46:22;;;;;;;2.70;0.50;;;;;;;6.49;100.00;153027.16;5008206;28;20445;-81
2024/01/04 05:48:50;;;;;;;2.10;0.50;;;;;;;6.49;100.00;153028.47;5008208;28;20476;-81
2024/01/04 05:51:16;;;;;;;2.27;0.90;;;;;;;6.49;100.00;153028.47;5009861;28;20978;-81
2024/01/04 05:53:43;;;;;;;1.20;0.57;;;;;;;6.49;100.00;153027.16;5009486;28;20949;-81
2024/01/04 05:56:09;;;;;;;1.80;0.57;;;;;;;6.47;100.00;153022.00;4993501;28;20447;-81
2024/01/04 05:58:36;;;;;;;3.03;0.70;;;;;;;6.47;100.00;153022.00;5010768;28;20441;-81
2024/01/04 06:01:02;;;;;;;0.93;0.40;;;;;;;6.46;100.00;153020.72;5003556;28;20452;-81
2024/01/04 06:03:29;;;;;;;2.77;1.00;;;;;;;6.46;100.00;153019.47;5002650;28;20936;-81
2024/01/04 06:05:57;;;;;;;1.00;0.50;;;;;;;6.46;100.00;153020.72;5000199;28;20452;-81
2024/01/04 06:08:24;;;;;;;1.30;0.50;;;;;;;6.48;100.00;153024.63;4997130;28;20486;-81
2024/01/04 06:10:50;;;;;;;1.30;0.60;;;;;;;6.46;100.00;153019.47;4997163;28;20445;-81
2024/01/04 06:13:18;;;;;;;0.97;0.50;;;;;;;6.48;100.00;153024.63;5000605;28;20488;-81
2024/01/04 06:15:45;;;;;;;1.23;0.50;;;;;;;6.47;100.00;153022.00;4997957;28;20915;-81
2024/01/04 06:18:12;;;;;;;1.70;0.50;;;;;;;6.47;100.00;153023.31;4995556;28;20549;-81
2024/01/04 06:20:39;;;;;;;1.93;0.57;;;;;;;6.47;100.00;153022.00;4998970;28;20958;-81
2024/01/04 06:23:07;;;;;;;1.43;0.80;;;;;;;6.47;100.00;153022.00;4980489;28;20451;-81
2024/01/04 06:25:33;;;;;;;3.27;1.23;;;;;;;6.47;100.00;153022.00;5005424;28;20544;-82
2024/01/04 06:28:00;;;;;;;1.30;0.43;;;;;;;6.46;100.00;153020.72;4990158;28;20468;-81
2024/01/04 06:30:26;;;;;;;3.13;0.40;;;;;;;6.46;100.00;153020.72;5000961;28;20457;-82
2024/01/04 06:32:53;;;;;;;2.10;0.50;;;;;;;6.48;100.00;153024.63;5008871;28;20453;-82
2024/01/04 06:35:19;;;;;;;1.00;0.50;;;;;;;6.49;100.00;153027.16;4986219;28;20456;-82
2024/01/04 06:37:46;;;;;;;1.20;0.63;;;;;;;6.49;100.00;153027.16;4994748;28;20476;-81
2024/01/04 06:40:15;;;;;;;1.37;0.87;;;;;;;6.48;100.00;153025.91;4999888;28;20483;-82
2024/01/04 06:42:42;;;;;;;2.30;1.10;;;;;;;6.49;100.00;153027.16;4981250;28;20476;-81
2024/01/04 06:45:09;;;;;;;3.60;0.80;;;;;;;6.49;100.00;153027.16;4997235;28;20444;-82
2024/01/04 06:47:36;;;;;;;1.27;0.60;;;;;;;6.50;100.00;153031.06;4995944;28;20476;-81
2024/01/04 06:50:03;;;;;;;2.70;0.60;;;;;;;6.48;100.00;153024.63;4987190;28;20473;-82
2024/01/04 06:52:30;;;;;;;1.37;0.63;;;;;;;6.49;100.00;153027.16;4996479;28;20563;-81
2024/01/04 06:54:57;;;;;;;1.27;0.70;;;;;;;6.50;100.00;153029.75;4985720;28;20490;-81
2024/01/04 06:57:25;;;;;;;1.57;0.80;;;;;;;6.52;100.00;153036.22;4998532;28;20475;-82
2024/01/04 06:59:52;;;;;;;1.47;0.40;;;;;;;6.50;100.00;153029.75;4996560;28;20484;-81
2024/01/04 07:02:18;;;;;;;1.37;0.70;;;;;;;6.48;100.00;153024.63;4997250;28;20449;-81
2024/01/04 07:04:45;;;;;;;2.03;0.80;;;;;;;6.48;100.00;153024.63;4983949;28;20457;-81
2024/01/04 07:07:12;;;;;;;1.17;0.60;;;;;;;6.47;100.00;153022.00;5011417;28;20465;-82
2024/01/04 07:09:38;;;;;;;2.10;1.03;;;;;;;6.47;100.00;153022.00;4985486;28;20516;-81
2024/01/04 07:12:06;;;;;;;2.50;0.83;;;;;;;6.47;100.00;153022.00;4991377;28;20997;-81
2024/01/04 07:14:37;;;;;;;2.13;0.93;;;;;;;6.48;100.00;153025.91;4994682;28;21192;-81
2024/01/04 07:17:07;;;;;;;2.17;0.80;;;;;;;6.48;100.00;153024.63;4996455;28;20461;-81
2024/01/04 07:19:36;;;;;;;2.20;0.90;;;;;;;6.47;100.00;153022.00;4997100;28;21193;-81
2024/01/04 07:22:03;;;;;;;1.30;0.60;;;;;;;6.47;100.00;153022.00;4986453;28;20489;-82
2024/01/04 07:24:31;;;;;;;1.67;0.63;;;;;;;6.45;100.00;153018.16;5001164;28;20452;-81
2024/01/04 07:27:04;;;;;;;3.90;0.60;;;;;;;6.44;100.00;153014.28;4984548;28;20997;-82
2024/01/04 07:29:31;;;;;;;1.73;1.00;;;;;;;6.44;100.00;153014.28;4984512;28;20480;-81
2024/01/04 07:31:59;;;;;;;1.53;0.97;;;;;;;6.43;100.00;153013.03;4997589;28;20514;-81
2024/01/04 07:34:28;;;;;;;1.53;0.60;;;;;;;6.43;100.00;153011.72;4997099;28;20810;-81
2024/01/04 07:36:55;;;;;;;2.83;0.77;;;;;;;6.40;100.00;153005.28;4984956;28;20862;-81
2024/01/04 07:39:21;;;;;;;1.57;0.77;;;;;;;6.43;100.00;153011.72;4982486;28;20449;-81
2024/01/04 07:41:48;;;;;;;2.23;0.50;;;;;;;6.43;100.00;153011.72;4976747;28;21133;-81
2024/01/04 07:44:16;;;;;;;0.90;0.43;;;;;;;6.43;100.00;153011.72;4995204;28;20834;-81
2024/01/04 07:46:43;;;;;;;3.17;0.50;;;;;;;6.38;100.00;152998.81;4996534;28;20449;-81
2024/01/04 07:49:10;;;;;;;1.00;0.43;;;;;;;6.39;100.00;153001.38;4997855;28;20813;-81
2024/01/04 07:51:38;;;;;;;2.13;0.90;;;;;;;6.36;100.00;152994.91;4984131;28;20870;-81
2024/01/04 07:54:05;;;;;;;1.00;0.50;;;;;;;6.33;100.00;152985.91;4996074;28;20810;-81
2024/01/04 07:56:31;;;;;;;0.90;0.50;;;;;;;6.35;100.00;152992.38;4986117;28;20461;-81
2024/01/04 07:58:58;;;;;;;1.10;0.60;;;;;;;6.36;100.00;152993.63;4995275;28;20441;-81
2024/01/04 08:01:24;;;;;;;1.43;0.57;;;;;;;6.34;100.00;152988.47;4998555;28;20852;-81
2024/01/04 08:03:51;;;;;;;1.07;0.43;;;;;;;6.31;100.00;152982.03;4995957;28;20784;-81
2024/01/04 08:06:19;;;;;;;1.37;0.50;;;;;;;6.28;100.00;152974.28;4987375;28;20465;-82
2024/01/04 08:08:46;;;;;;;1.20;0.70;;;;;;;6.26;100.00;152967.81;4986347;28;20464;-81
2024/01/04 08:11:12;;;;;;;1.73;0.40;;;;;;;6.25;100.00;152965.28;4978628;28;20456;-81
2024/01/04 08:13:39;;;;;;;2.03;0.90;;;;;;;6.24;100.00;152962.66;4997669;28;20449;-81
2024/01/04 08:16:06;;;;;;;2.70;0.83;;;;;;;6.25;100.00;152965.28;4986023;28;20941;-81
2024/01/04 08:18:32;;;;;;;3.53;1.10;;;;;;;6.28;100.00;152972.97;5001878;28;20455;-81
2024/01/04 08:20:59;;;;;;;1.40;0.70;;;;;;;6.29;100.00;152975.56;4999919;28;20464;-82
2024/01/04 08:23:27;;;;;;;2.00;0.90;;;;;;;6.31;100.00;152980.72;5002472;28;20456;-81
2024/01/04 08:25:55;;;;;;;2.60;1.10;;;;;;;6.31;100.00;152980.72;4998844;28;20461;-81
2024/01/04 08:28:29;;;;;;;3.40;1.20;;;;;;;6.34;100.00;152988.47;4969803;28;20828;-81
2024/01/04 08:30:56;;;;;;;1.23;0.73;;;;;;;6.33;100.00;152985.91;4985702;28;20922;-81
2024/01/04 08:33:24;;;;;;;1.47;0.60;;;;;;;6.31;100.00;152982.03;4997265;28;20814;-81
2024/01/04 08:35:50;;;;;;;2.70;1.00;;;;;;;6.31;100.00;152980.72;4997279;28;20861;-82
2024/01/04 08:38:17;;;;;;;5.43;0.90;;;;;;;6.33;100.00;152985.91;4997448;28;20458;-82
2024/01/04 08:40:45;;;;;;;2.20;0.90;;;;;;;6.37;100.00;152996.22;4999851;28;20476;-82
2024/01/04 08:43:13;;;;;;;4.70;1.10;;;;;;;6.43;100.00;153011.72;4994354;28;20456;-82
2024/01/04 08:45:40;;;;;;;2.90;1.00;;;;;;;6.51;100.00;153032.38;4984535;28;20449;-82
2024/01/04 08:48:07;;;;;;;1.67;0.80;;;;;;;6.58;100.00;153050.41;4997013;28;20482;-82
2024/01/04 08:50:34;;;;;;;2.57;1.00;;;;;;;6.63;100.00;153063.31;4979284;28;20459;-81
2024/01/04 08:53:01;;;;;;;4.80;1.30;;;;;;;6.68;100.00;153076.22;4985627;28;20610;-81
2024/01/04 08:55:27;;;;;;;2.50;0.90;;;;;;;6.71;100.00;153083.97;4996363;28;20457;-84
2024/01/04 08:57:55;;;;;;;2.67;0.90;;;;;;;6.77;100.00;153099.47;4995582;28;20546;-84
2024/01/04 09:00:22;;;;;;;2.40;0.80;;;;;;;6.84;100.00;153117.53;4998939;28;20524;-81
2024/01/04 09:02:49;;;;;;;1.23;0.50;;;;;;;6.92;100.00;153136.88;5003943;28;20452;-82
2024/01/04 09:05:15;;;;;;;2.67;0.60;;;;;;;6.97;100.00;153151.09;5000869;28;20460;-81
2024/01/04 09:07:42;;;;;;;1.23;0.50;;;;;;;7.03;100.00;153166.59;4998271;28;20485;-81
2024/01/04 09:10:08;;;;;;;1.53;0.53;;;;;;;7.07;100.00;153175.66;5001837;28;21939;-82
2024/01/04 09:12:34;;;;;;;1.17;0.70;;;;;;;7.10;100.00;153183.34;5000936;28;20455;-81
2024/01/04 09:15:05;;;;;;;2.00;0.83;;;;;;;7.10;100.00;153184.66;4987651;28;20219;-82
2024/01/04 09:17:32;;;;;;;1.10;0.70;;;;;;;7.17;100.00;153201.47;4987582;28;20445;-81
2024/01/04 09:19:59;;;;;;;1.73;0.77;;;;;;;7.21;100.00;153213.06;5000540;28;20514;-82
2024/01/04 09:22:25;;;;;;;1.50;0.40;;;;;;;7.24;100.00;153220.81;4984104;28;20448;-82
2024/01/04 09:24:53;;;;;;;1.17;0.50;;;;;;;7.24;100.00;153220.81;4988508;28;20488;-82
2024/01/04 09:27:20;;;;;;;0.93;0.50;;;;;;;7.25;100.00;153222.13;5001546;28;20867;-82
2024/01/04 09:29:47;;;;;;;3.30;0.70;;;;;;;7.25;100.00;153223.38;4987897;28;20469;-82
2024/01/04 09:32:15;;;;;;;3.80;0.80;;;;;;;7.27;100.00;153228.56;4999381;28;21001;-78
2024/01/04 09:34:41;;;;;;;2.07;0.63;;;;;;;7.26;100.00;153225.97;4986494;28;20506;-77
2024/01/04 09:37:08;;;;;;;2.30;0.70;;;;;;;7.31;100.00;153238.88;4986030;28;20456;-77
2024/01/04 09:39:35;;;;;;;2.13;0.63;;;;;;;7.31;100.00;153238.88;5000353;28;20445;-82
2024/01/04 09:42:06;;;;;;;1.70;0.90;;;;;;;7.30;100.00;153236.34;4972100;28;20478;-82
2024/01/04 09:44:34;;;;;;;1.73;0.60;;;;;;;7.34;100.00;153245.34;4981880;28;20442;-82
2024/01/04 09:47:04;;;;;;;1.30;0.50;;;;;;;7.36;100.00;153251.78;4969147;28;21064;-82
2024/01/04 09:49:32;;;;;;;1.47;0.57;;;;;;;7.40;100.00;153260.84;4979373;28;20465;-82
2024/01/04 09:51:59;;;;;;;3.23;0.50;;;;;;;7.42;100.00;153266.00;4986085;28;20469;-82
2024/01/04 09:54:26;;;;;;;2.83;1.13;;;;;;;7.47;100.00;153277.63;4982102;28;20548;-82
2024/01/04 09:56:53;;;;;;;1.13;0.50;;;;;;;7.53;100.00;153293.13;4967889;28;20466;-82
2024/01/04 09:59:20;;;;;;;1.50;0.70;;;;;;;7.57;100.00;153303.47;4982260;28;20461;-82
2024/01/04 10:01:49;;;;;;;2.30;1.07;;;;;;;7.61;100.00;153313.78;4962996;28;20465;-82
2024/01/04 10:04:17;;;;;;;2.30;0.77;;;;;;;7.66;100.00;153326.72;4969992;28;20804;-82
2024/01/04 10:06:45;;;;;;;0.70;0.40;;;;;;;7.70;100.00;153337.06;4982645;28;20882;-81
2024/01/04 10:09:16;;;;;;;1.40;0.70;;;;;;;7.73;100.00;153344.81;4963769;28;20498;-81
2024/01/04 10:11:45;;;;;;;1.20;0.50;;;;;;;7.78;100.00;153357.72;4980154;28;20542;-81
2024/01/04 10:14:13;;;;;;;1.33;0.60;;;;;;;7.81;100.00;153365.50;4981584;28;20482;-81
2024/01/04 10:16:39;;;;;;;1.57;0.60;;;;;;;7.82;100.00;153368.03;4973732;28;20469;-81
2024/01/04 10:19:06;;;;;;;1.20;0.70;;;;;;;7.78;100.00;153358.97;4988185;28;21023;-82
2024/01/04 10:21:34;;;;;;;2.50;0.70;;;;;;;7.74;100.00;153348.69;4970802;28;20457;-81
2024/01/04 10:24:02;;;;;;;1.53;0.67;;;;;;;7.72;100.00;153343.53;4966701;28;21056;-82
2024/01/04 10:26:30;;;;;;;1.70;0.80;;;;;;;7.69;100.00;153334.47;4964449;28;20466;-81
2024/01/04 10:28:56;;;;;;;1.90;0.90;;;;;;;7.65;100.00;153324.16;4987407;28;20477;-81
2024/01/04 10:31:23;;;;;;;2.27;0.73;;;;;;;7.64;100.00;153322.84;4976206;28;20457;-81
2024/01/04 10:33:56;;;;;;;1.20;0.57;;;;;;;7.62;100.00;153317.69;4985096;28;20788;-82
2024/01/04 10:36:23;;;;;;;1.57;0.70;;;;;;;7.62;100.00;153316.41;4985961;28;20472;-81
2024/01/04 10:38:50;;;;;;;1.53;0.67;;;;;;;7.60;100.00;153311.25;4988296;28;20453;-81
2024/01/04 10:41:18;;;;;;;2.23;0.87;;;;;;;7.62;100.00;153316.41;4982264;28;20485;-82
2024/01/04 10:43:45;;;;;;;1.40;0.57;;;;;;;7.61;100.00;153313.78;4979834;28;20459;-83
2024/01/04 10:46:13;;;;;;;1.80;0.70;;;;;;;7.55;100.00;153299.59;4981245;28;20458;-84
2024/01/04 10:48:39;;;;;;;2.07;0.70;;;;;;;7.54;100.00;153295.72;4980137;28;20482;-83
2024/01/04 10:51:09;;;;;;;0.93;0.50;;;;;;;7.50;100.00;153285.38;4977281;28;20457;-83
2024/01/04 10:53:36;;;;;;;2.67;0.90;;;;;;;7.50;100.00;153285.38;4981942;28;20442;-83
2024/01/04 10:56:03;;;;;;;1.60;0.80;;;;;;;7.47;100.00;153277.63;4979534;28;20462;-84
2024/01/04 10:58:32;;;;;;;1.40;0.53;;;;;;;7.48;100.00;153280.22;4980012;28;20508;-83
2024/01/04 11:00:59;;;;;;;5.90;1.07;;;;;;;7.45;100.00;153272.47;4979402;28;20466;-78
2024/01/04 11:03:30;;;;;;;2.90;1.43;;;;;;;7.43;100.00;153267.31;4978993;28;20466;-77
2024/01/04 11:05:59;;;;;;;1.50;0.73;;;;;;;7.42;100.00;153266.00;4966871;28;20464;-77
2024/01/04 11:08:26;;;;;;;0.80;0.50;;;;;;;7.37;100.00;153253.09;4977569;28;20936;-77
2024/01/04 11:10:55;;;;;;;1.47;0.83;;;;;;;7.38;100.00;153255.69;4957715;28;20467;-77
2024/01/04 11:13:21;;;;;;;1.50;0.87;;;;;;;7.38;100.00;153254.41;4980560;28;21002;-78
2024/01/04 11:15:51;;;;;;;1.20;0.67;;;;;;;7.39;100.00;153257.00;4953441;28;20846;-78
2024/01/04 11:18:30;;;;;;;1.33;0.80;;;;;;;7.44;100.00;153269.91;4969087;28;20537;-77
2024/01/04 11:21:07;;;;;;;5.30;0.77;;;;;;;7.42;100.00;153264.69;4976745;28;20463;-78
2024/01/04 11:23:52;;;;;;;4.30;1.33;;;;;;;7.49;100.00;153282.81;4968742;28;20452;-77